Mia Rama — 9HA4221 — position and weather

sailwx.info

Track history (hours):
 
Tides and Currents Weather Stations Pressure Air Temp Water Temp Dewpoint Dewpoint Depression Visibility Wind Speed Wind Dir Waves Ship Positions

Mia Rama

Last reported at 2018-Aug-13 23:13 UTC. Time now 2018-Aug-16 20:20 UTC.
Position N 44°43' E 013°56'.

Length 54 m; draft 3.3 m.

Type: Pleasure craft. MMSI: 249373000.

Date/timePositionNaut miles runAvg speedWind from/ knotsBaromVisibWave heightAir tempDewpointWater temp
2018-Aug-13 23:13N 44°43' E 013°56'413.3
2018-Aug-13 22:56N 44°44' E 013°51'614.5
2018-Aug-13 22:30N 44°48' E 013°45'714.3
2018-Aug-13 22:00N 44°54' E 013°39'713.6
2018-Aug-13 21:30N 45°00' E 013°34'611.1
2018-Aug-13 21:00N 45°05' E 013°37'1 0.9
2018-Aug-13 20:16N 45°05' E 013°38'0 0.0
2018-Aug-13 19:55N 45°05' E 013°38'0 0.0
2018-Aug-13 19:25N 45°05' E 013°38'0 0.0
2018-Aug-13 18:52N 45°05' E 013°38'0 0.0
2018-Aug-13 18:28N 45°05' E 013°38'0 0.0
2018-Aug-13 17:37N 45°05' E 013°38'0 0.0
2018-Aug-13 17:28N 45°05' E 013°38'0 0.0
2018-Aug-13 17:01N 45°05' E 013°38'0 0.0
2018-Aug-13 16:25N 45°05' E 013°38'0 0.0
2018-Aug-13 15:52N 45°05' E 013°38'0 0.0
2018-Aug-13 15:01N 45°05' E 013°38'0 0.0
2018-Aug-13 14:55N 45°05' E 013°38'0 0.0
2018-Aug-13 14:31N 45°05' E 013°38'0 0.0
2018-Aug-13 13:52N 45°05' E 013°38'0 0.0
2018-Aug-13 13:25N 45°05' E 013°38'0 0.0
2018-Aug-13 13:01N 45°05' E 013°38'0 0.0
2018-Aug-13 12:25N 45°05' E 013°38'0 0.0
2018-Aug-13 11:58N 45°05' E 013°38'0 0.0
2018-Aug-13 11:28N 45°05' E 013°38'0 0.0
2018-Aug-13 10:58N 45°05' E 013°38'0 0.0
2018-Aug-13 10:28N 45°05' E 013°38'0 0.0
2018-Aug-13 09:58N 45°05' E 013°38'0 0.0
2018-Aug-13 09:28N 45°05' E 013°38'0 0.3
2018-Aug-13 07:57N 45°05' E 013°38'4 8.9
2018-Aug-13 07:30N 45°05' E 013°32'713.8
2018-Aug-13 07:00N 45°04' E 013°22'1613.7
2018-Aug-13 05:52N 45°06' E 013°00'513.6
2018-Aug-13 05:30N 45°08' E 012°54'713.7
2018-Aug-13 05:01N 45°13' E 012°47'713.7
2018-Aug-13 04:29N 45°18' E 012°40'613.0
2018-Aug-13 04:00N 45°22' E 012°34'4 7.6
2018-Aug-13 03:30N 45°24' E 012°29'5 8.4
2018-Aug-13 02:58N 45°26' E 012°23'2 3.0
2018-Aug-13 02:27N 45°26' E 012°21'0 0.0
2018-Aug-13 01:54N 45°26' E 012°21'0 0.0
2018-Aug-13 01:24N 45°26' E 012°21'0 0.0
2018-Aug-13 00:54N 45°26' E 012°21'0 0.0
2018-Aug-13 00:30N 45°26' E 012°21'0 0.0
2018-Aug-13 00:00N 45°26' E 012°21'0 0.0
2018-Aug-12 20:00N 45°26' E 012°21'0 0.0
2018-Aug-12 18:06N 45°26' E 012°21'0 0.0
2018-Aug-12 17:00N 45°26' E 012°21'0 0.0
2018-Aug-12 16:30N 45°26' E 012°21'0 0.0
2018-Aug-12 16:00N 45°26' E 012°21'0 0.0
2018-Aug-12 15:30N 45°26' E 012°21'0 0.0
2018-Aug-12 14:48N 45°26' E 012°21'0 0.0
2018-Aug-12 14:30N 45°26' E 012°21'0 0.0
2018-Aug-12 13:57N 45°26' E 012°21'0 0.0
2018-Aug-12 11:42N 45°26' E 012°21'0 0.0
2018-Aug-12 11:24N 45°26' E 012°21'0 0.0
2018-Aug-12 09:12N 45°26' E 012°21'0 0.0
2018-Aug-12 09:00N 45°26' E 012°21'0 0.0
2018-Aug-12 08:30N 45°26' E 012°21'0 0.0
2018-Aug-12 08:00N 45°26' E 012°21'0 0.0
2018-Aug-12 06:42N 45°26' E 012°21'0 0.0
2018-Aug-12 06:30N 45°26' E 012°21'0 0.0
2018-Aug-12 06:00N 45°26' E 012°21'0 0.0
2018-Aug-12 05:24N 45°26' E 012°21'0 0.0
2018-Aug-12 05:00N 45°26' E 012°21'0 0.0
2018-Aug-12 04:30N 45°26' E 012°21'0 0.0
2018-Aug-12 04:00N 45°26' E 012°21'0 0.0
2018-Aug-12 03:30N 45°26' E 012°21'0 0.0
2018-Aug-12 03:00N 45°26' E 012°21'0 0.0
2018-Aug-12 02:30N 45°26' E 012°21'0 0.0
2018-Aug-12 02:00N 45°26' E 012°21'0 0.0
2018-Aug-12 01:24N 45°26' E 012°21'0 0.0
2018-Aug-12 01:00N 45°26' E 012°21'0 0.0
2018-Aug-12 00:30N 45°26' E 012°21'0 0.0
2018-Aug-12 00:00N 45°26' E 012°21'0 0.0
2018-Aug-11 23:30N 45°26' E 012°21'0 0.0
2018-Aug-11 23:00N 45°26' E 012°21'0 0.0
2018-Aug-11 22:24N 45°26' E 012°21'0 0.0
2018-Aug-11 22:00N 45°26' E 012°21'0 0.0
2018-Aug-11 21:24N 45°26' E 012°21'0 0.0
2018-Aug-11 21:00N 45°26' E 012°21'0 0.0
2018-Aug-11 20:30N 45°26' E 012°21'0 0.0
2018-Aug-11 19:18N 45°26' E 012°21'0 0.0
2018-Aug-11 19:00N 45°26' E 012°21'0 0.0
2018-Aug-11 18:30N 45°26' E 012°21'0 0.0
2018-Aug-11 18:00N 45°26' E 012°21'0 0.0
2018-Aug-11 17:30N 45°26' E 012°21'0 0.0
2018-Aug-11 16:24N 45°26' E 012°21'0 0.0
2018-Aug-11 16:00N 45°26' E 012°21'0 0.0
2018-Aug-11 15:30N 45°26' E 012°21'0 0.0
2018-Aug-11 15:00N 45°26' E 012°21'0 0.0
2018-Aug-11 14:30N 45°26' E 012°21'0 0.0
2018-Aug-11 12:54N 45°26' E 012°21'0 0.0
2018-Aug-11 12:30N 45°26' E 012°21'0 0.0
2018-Aug-11 12:00N 45°26' E 012°21'0 0.0
2018-Aug-11 11:24N 45°26' E 012°21'0 0.0
2018-Aug-11 11:00N 45°26' E 012°21'0 0.0
2018-Aug-11 10:30N 45°26' E 012°21'0 0.0
2018-Aug-11 10:00N 45°26' E 012°21'0 0.0
2018-Aug-11 09:06N 45°26' E 012°21'0 0.0
2018-Aug-11 09:00N 45°26' E 012°21'0 0.0
2018-Aug-11 08:30N 45°26' E 012°21'0 0.0
2018-Aug-11 07:48N 45°26' E 012°21'0 0.0
2018-Aug-11 07:30N 45°26' E 012°21'0 0.0
2018-Aug-11 07:00N 45°26' E 012°21'0 0.0
2018-Aug-11 06:30N 45°26' E 012°21'0 0.0
2018-Aug-11 06:00N 45°26' E 012°21'0 0.0
2018-Aug-11 05:30N 45°26' E 012°21'0 0.0
2018-Aug-11 05:00N 45°26' E 012°21'0 0.0
2018-Aug-11 04:30N 45°26' E 012°21'0 0.0
2018-Aug-11 03:54N 45°26' E 012°21'0 0.0
2018-Aug-11 03:30N 45°26' E 012°21'0 0.0
2018-Aug-11 02:57N 45°26' E 012°21'0 0.0
2018-Aug-11 02:18N 45°26' E 012°21'0 0.0
2018-Aug-11 02:00N 45°26' E 012°21'0 0.0
2018-Aug-11 01:18N 45°26' E 012°21'0 0.0
2018-Aug-11 01:00N 45°26' E 012°21'0 0.0
2018-Aug-11 00:24N 45°26' E 012°21'0 0.0
2018-Aug-11 00:00N 45°26' E 012°21'0 0.0
2018-Aug-10 23:24N 45°26' E 012°21'0 0.0
2018-Aug-10 21:24N 45°26' E 012°21'0 0.0
2018-Aug-10 20:06N 45°26' E 012°21'0 0.0
2018-Aug-10 19:36N 45°26' E 012°21'0 0.0
2018-Aug-10 19:24N 45°26' E 012°21'0 0.0
2018-Aug-10 18:48N 45°26' E 012°21'0 0.0
2018-Aug-10 17:48N 45°26' E 012°21'0 0.0
2018-Aug-10 14:24N 45°26' E 012°21'0 0.0
2018-Aug-10 13:54N 45°26' E 012°21'0 0.0
2018-Aug-10 13:06N 45°26' E 012°21'0 0.0
2018-Aug-10 11:48N 45°26' E 012°21'0 0.0
2018-Aug-10 11:30N 45°26' E 012°21'0 0.0
2018-Aug-10 09:48N 45°26' E 012°21'0 0.0
2018-Aug-10 09:24N 45°26' E 012°21'0 0.0
2018-Aug-10 08:48N 45°26' E 012°21'0 0.0
2018-Aug-10 08:29N 45°26' E 012°21'0 0.0
2018-Aug-10 08:00N 45°26' E 012°21'0 0.0
2018-Aug-10 07:30N 45°26' E 012°21'2 3.3
2018-Aug-10 07:00N 45°26' E 012°23'5 9.1
2018-Aug-10 06:31N 45°24' E 012°29'1 2.6
2018-Aug-10 06:00N 45°24' E 012°31'0 0.4
2018-Aug-10 05:30N 45°24' E 012°31'2 3.0
2018-Aug-10 05:00N 45°23' E 012°32'611.4
2018-Aug-10 04:30N 45°17' E 012°33'714.0
2018-Aug-10 04:00N 45°12' E 012°40'714.2
2018-Aug-10 03:31N 45°08' E 012°48'713.8
2018-Aug-10 03:00N 45°04' E 012°56'713.8
2018-Aug-10 02:30N 45°02' E 013°06'713.8
2018-Aug-10 01:59N 45°03' E 013°16'713.8
2018-Aug-10 01:30N 45°04' E 013°25'713.7
2018-Aug-10 01:00N 45°05' E 013°35'3 4.6
2018-Aug-10 00:27N 45°05' E 013°38'0 0.0
2018-Aug-09 23:42N 45°05' E 013°38'0 0.0
2018-Aug-09 23:30N 45°05' E 013°38'0 0.0
2018-Aug-09 22:48N 45°05' E 013°38'0 0.0
2018-Aug-09 22:30N 45°05' E 013°38'0 0.0
2018-Aug-09 21:57N 45°05' E 013°38'0 0.0
2018-Aug-09 21:27N 45°05' E 013°38'0 0.0
2018-Aug-09 20:54N 45°05' E 013°38'0 0.0
2018-Aug-09 20:18N 45°05' E 013°38'0 0.0
2018-Aug-09 20:00N 45°05' E 013°38'0 0.0
2018-Aug-09 19:27N 45°05' E 013°38'0 0.0
2018-Aug-09 18:54N 45°05' E 013°38'0 0.0
2018-Aug-09 18:12N 45°05' E 013°38'0 0.0
2018-Aug-09 17:51N 45°05' E 013°38'0 0.0
2018-Aug-09 17:30N 45°05' E 013°38'0 0.0
2018-Aug-09 17:00N 45°05' E 013°38'0 0.0
2018-Aug-09 16:24N 45°05' E 013°38'0 0.0
2018-Aug-09 15:51N 45°05' E 013°38'0 0.0
2018-Aug-09 15:21N 45°05' E 013°38'0 0.0
2018-Aug-09 14:57N 45°05' E 013°38'0 0.0
2018-Aug-09 14:30N 45°05' E 013°38'0 0.0
2018-Aug-09 13:54N 45°05' E 013°38'0 0.0
2018-Aug-09 13:27N 45°05' E 013°38'0 0.0
2018-Aug-09 13:00N 45°05' E 013°38'0 0.0
2018-Aug-09 12:30N 45°05' E 013°38'0 0.0
2018-Aug-09 11:57N 45°05' E 013°38'0 0.0
2018-Aug-09 11:30N 45°05' E 013°38'0 0.0
2018-Aug-09 10:57N 45°05' E 013°38'0 0.0
2018-Aug-09 10:30N 45°05' E 013°38'0 0.0
2018-Aug-09 10:00N 45°05' E 013°38'0 0.0
2018-Aug-09 09:27N 45°05' E 013°38'0 0.0
2018-Aug-09 09:00N 45°05' E 013°38'0 0.0
2018-Aug-09 08:24N 45°05' E 013°38'0 0.0
2018-Aug-09 07:55N 45°05' E 013°38'4 6.2
2018-Aug-09 07:18N 45°02' E 013°35'2713.8
2018-Aug-09 05:21N 44°39' E 013°54'514.3
2018-Aug-09 05:00N 44°36' E 013°60'814.2
2018-Aug-09 04:28N 44°31' E 014°07'  
Track history (hours):
 
Tides and Currents Weather Stations Pressure Air Temp Water Temp Dewpoint Dewpoint Depression Visibility Wind Speed Wind Dir Waves Ship Positions

Mia Rama

Last reported at 2018-Aug-13 23:13 UTC. Time now 2018-Aug-16 20:20 UTC.
Position N 44°43' E 013°56'.

Length 54 m; draft 3.3 m.

Type: Pleasure craft. MMSI: 249373000.

Date/timePositionNaut miles runAvg speedWind from/ knotsBaromVisibWave heightAir tempDewpointWater temp
2018-Aug-13 23:13N 44°43' E 013°56'413.3
2018-Aug-13 22:56N 44°44' E 013°51'614.5
2018-Aug-13 22:30N 44°48' E 013°45'714.3
2018-Aug-13 22:00N 44°54' E 013°39'713.6
2018-Aug-13 21:30N 45°00' E 013°34'611.1
2018-Aug-13 21:00N 45°05' E 013°37'1 0.9
2018-Aug-13 20:16N 45°05' E 013°38'0 0.0
2018-Aug-13 19:55N 45°05' E 013°38'0 0.0
2018-Aug-13 19:25N 45°05' E 013°38'0 0.0
2018-Aug-13 18:52N 45°05' E 013°38'0 0.0
2018-Aug-13 18:28N 45°05' E 013°38'0 0.0
2018-Aug-13 17:37N 45°05' E 013°38'0 0.0
2018-Aug-13 17:28N 45°05' E 013°38'0 0.0
2018-Aug-13 17:01N 45°05' E 013°38'0 0.0
2018-Aug-13 16:25N 45°05' E 013°38'0 0.0
2018-Aug-13 15:52N 45°05' E 013°38'0 0.0
2018-Aug-13 15:01N 45°05' E 013°38'0 0.0
2018-Aug-13 14:55N 45°05' E 013°38'0 0.0
2018-Aug-13 14:31N 45°05' E 013°38'0 0.0
2018-Aug-13 13:52N 45°05' E 013°38'0 0.0
2018-Aug-13 13:25N 45°05' E 013°38'0 0.0
2018-Aug-13 13:01N 45°05' E 013°38'0 0.0
2018-Aug-13 12:25N 45°05' E 013°38'0 0.0
2018-Aug-13 11:58N 45°05' E 013°38'0 0.0
2018-Aug-13 11:28N 45°05' E 013°38'0 0.0
2018-Aug-13 10:58N 45°05' E 013°38'0 0.0
2018-Aug-13 10:28N 45°05' E 013°38'0 0.0
2018-Aug-13 09:58N 45°05' E 013°38'0 0.0
2018-Aug-13 09:28N 45°05' E 013°38'0 0.3
2018-Aug-13 07:57N 45°05' E 013°38'4 8.9
2018-Aug-13 07:30N 45°05' E 013°32'713.8
2018-Aug-13 07:00N 45°04' E 013°22'1613.7
2018-Aug-13 05:52N 45°06' E 013°00'513.6
2018-Aug-13 05:30N 45°08' E 012°54'713.7
2018-Aug-13 05:01N 45°13' E 012°47'713.7
2018-Aug-13 04:29N 45°18' E 012°40'613.0
2018-Aug-13 04:00N 45°22' E 012°34'4 7.6
2018-Aug-13 03:30N 45°24' E 012°29'5 8.4
2018-Aug-13 02:58N 45°26' E 012°23'2 3.0
2018-Aug-13 02:27N 45°26' E 012°21'0 0.0
2018-Aug-13 01:54N 45°26' E 012°21'0 0.0
2018-Aug-13 01:24N 45°26' E 012°21'0 0.0
2018-Aug-13 00:54N 45°26' E 012°21'0 0.0
2018-Aug-13 00:30N 45°26' E 012°21'0 0.0
2018-Aug-13 00:00N 45°26' E 012°21'0 0.0
2018-Aug-12 20:00N 45°26' E 012°21'0 0.0
2018-Aug-12 18:06N 45°26' E 012°21'0 0.0
2018-Aug-12 17:00N 45°26' E 012°21'0 0.0
2018-Aug-12 16:30N 45°26' E 012°21'0 0.0
2018-Aug-12 16:00N 45°26' E 012°21'0 0.0
2018-Aug-12 15:30N 45°26' E 012°21'0 0.0
2018-Aug-12 14:48N 45°26' E 012°21'0 0.0
2018-Aug-12 14:30N 45°26' E 012°21'0 0.0
2018-Aug-12 13:57N 45°26' E 012°21'0 0.0
2018-Aug-12 11:42N 45°26' E 012°21'0 0.0
2018-Aug-12 11:24N 45°26' E 012°21'0 0.0
2018-Aug-12 09:12N 45°26' E 012°21'0 0.0
2018-Aug-12 09:00N 45°26' E 012°21'0 0.0
2018-Aug-12 08:30N 45°26' E 012°21'0 0.0
2018-Aug-12 08:00N 45°26' E 012°21'0 0.0
2018-Aug-12 06:42N 45°26' E 012°21'0 0.0
2018-Aug-12 06:30N 45°26' E 012°21'0 0.0
2018-Aug-12 06:00N 45°26' E 012°21'0 0.0
2018-Aug-12 05:24N 45°26' E 012°21'0 0.0
2018-Aug-12 05:00N 45°26' E 012°21'0 0.0
2018-Aug-12 04:30N 45°26' E 012°21'0 0.0
2018-Aug-12 04:00N 45°26' E 012°21'0 0.0
2018-Aug-12 03:30N 45°26' E 012°21'0 0.0
2018-Aug-12 03:00N 45°26' E 012°21'0 0.0
2018-Aug-12 02:30N 45°26' E 012°21'0 0.0
2018-Aug-12 02:00N 45°26' E 012°21'0 0.0
2018-Aug-12 01:24N 45°26' E 012°21'0 0.0
2018-Aug-12 01:00N 45°26' E 012°21'0 0.0
2018-Aug-12 00:30N 45°26' E 012°21'0 0.0
2018-Aug-12 00:00N 45°26' E 012°21'0 0.0
2018-Aug-11 23:30N 45°26' E 012°21'0 0.0
2018-Aug-11 23:00N 45°26' E 012°21'0 0.0
2018-Aug-11 22:24N 45°26' E 012°21'0 0.0
2018-Aug-11 22:00N 45°26' E 012°21'0 0.0
2018-Aug-11 21:24N 45°26' E 012°21'0 0.0
2018-Aug-11 21:00N 45°26' E 012°21'0 0.0
2018-Aug-11 20:30N 45°26' E 012°21'0 0.0
2018-Aug-11 19:18N 45°26' E 012°21'0 0.0
2018-Aug-11 19:00N 45°26' E 012°21'0 0.0
2018-Aug-11 18:30N 45°26' E 012°21'0 0.0
2018-Aug-11 18:00N 45°26' E 012°21'0 0.0
2018-Aug-11 17:30N 45°26' E 012°21'0 0.0
2018-Aug-11 16:24N 45°26' E 012°21'0 0.0
2018-Aug-11 16:00N 45°26' E 012°21'0 0.0
2018-Aug-11 15:30N 45°26' E 012°21'0 0.0
2018-Aug-11 15:00N 45°26' E 012°21'0 0.0
2018-Aug-11 14:30N 45°26' E 012°21'0 0.0
2018-Aug-11 12:54N 45°26' E 012°21'0 0.0
2018-Aug-11 12:30N 45°26' E 012°21'0 0.0
2018-Aug-11 12:00N 45°26' E 012°21'0 0.0
2018-Aug-11 11:24N 45°26' E 012°21'0 0.0
2018-Aug-11 11:00N 45°26' E 012°21'0 0.0
2018-Aug-11 10:30N 45°26' E 012°21'0 0.0
2018-Aug-11 10:00N 45°26' E 012°21'0 0.0
2018-Aug-11 09:06N 45°26' E 012°21'0 0.0
2018-Aug-11 09:00N 45°26' E 012°21'0 0.0
2018-Aug-11 08:30N 45°26' E 012°21'0 0.0
2018-Aug-11 07:48N 45°26' E 012°21'0 0.0
2018-Aug-11 07:30N 45°26' E 012°21'0 0.0
2018-Aug-11 07:00N 45°26' E 012°21'0 0.0
2018-Aug-11 06:30N 45°26' E 012°21'0 0.0
2018-Aug-11 06:00N 45°26' E 012°21'0 0.0
2018-Aug-11 05:30N 45°26' E 012°21'0 0.0
2018-Aug-11 05:00N 45°26' E 012°21'0 0.0
2018-Aug-11 04:30N 45°26' E 012°21'0 0.0
2018-Aug-11 03:54N 45°26' E 012°21'0 0.0
2018-Aug-11 03:30N 45°26' E 012°21'0 0.0
2018-Aug-11 02:57N 45°26' E 012°21'0 0.0
2018-Aug-11 02:18N 45°26' E 012°21'0 0.0
2018-Aug-11 02:00N 45°26' E 012°21'0 0.0
2018-Aug-11 01:18N 45°26' E 012°21'0 0.0
2018-Aug-11 01:00N 45°26' E 012°21'0 0.0
2018-Aug-11 00:24N 45°26' E 012°21'0 0.0
2018-Aug-11 00:00N 45°26' E 012°21'0 0.0
2018-Aug-10 23:24N 45°26' E 012°21'0 0.0
2018-Aug-10 21:24N 45°26' E 012°21'0 0.0
2018-Aug-10 20:06N 45°26' E 012°21'0 0.0
2018-Aug-10 19:36N 45°26' E 012°21'0 0.0
2018-Aug-10 19:24N 45°26' E 012°21'0 0.0
2018-Aug-10 18:48N 45°26' E 012°21'0 0.0
2018-Aug-10 17:48N 45°26' E 012°21'0 0.0
2018-Aug-10 14:24N 45°26' E 012°21'0 0.0
2018-Aug-10 13:54N 45°26' E 012°21'0 0.0
2018-Aug-10 13:06N 45°26' E 012°21'0 0.0
2018-Aug-10 11:48N 45°26' E 012°21'0 0.0
2018-Aug-10 11:30N 45°26' E 012°21'0 0.0
2018-Aug-10 09:48N 45°26' E 012°21'0 0.0
2018-Aug-10 09:24N 45°26' E 012°21'0 0.0
2018-Aug-10 08:48N 45°26' E 012°21'0 0.0
2018-Aug-10 08:29N 45°26' E 012°21'0 0.0
2018-Aug-10 08:00N 45°26' E 012°21'0 0.0
2018-Aug-10 07:30N 45°26' E 012°21'2 3.3
2018-Aug-10 07:00N 45°26' E 012°23'5 9.1
2018-Aug-10 06:31N 45°24' E 012°29'1 2.6
2018-Aug-10 06:00N 45°24' E 012°31'0 0.4
2018-Aug-10 05:30N 45°24' E 012°31'2 3.0
2018-Aug-10 05:00N 45°23' E 012°32'611.4
2018-Aug-10 04:30N 45°17' E 012°33'714.0
2018-Aug-10 04:00N 45°12' E 012°40'714.2
2018-Aug-10 03:31N 45°08' E 012°48'713.8
2018-Aug-10 03:00N 45°04' E 012°56'713.8
2018-Aug-10 02:30N 45°02' E 013°06'713.8
2018-Aug-10 01:59N 45°03' E 013°16'713.8
2018-Aug-10 01:30N 45°04' E 013°25'713.7
2018-Aug-10 01:00N 45°05' E 013°35'3 4.6
2018-Aug-10 00:27N 45°05' E 013°38'0 0.0
2018-Aug-09 23:42N 45°05' E 013°38'0 0.0
2018-Aug-09 23:30N 45°05' E 013°38'0 0.0
2018-Aug-09 22:48N 45°05' E 013°38'0 0.0
2018-Aug-09 22:30N 45°05' E 013°38'0 0.0
2018-Aug-09 21:57N 45°05' E 013°38'0 0.0
2018-Aug-09 21:27N 45°05' E 013°38'0 0.0
2018-Aug-09 20:54N 45°05' E 013°38'0 0.0
2018-Aug-09 20:18N 45°05' E 013°38'0 0.0
2018-Aug-09 20:00N 45°05' E 013°38'0 0.0
2018-Aug-09 19:27N 45°05' E 013°38'0 0.0
2018-Aug-09 18:54N 45°05' E 013°38'0 0.0
2018-Aug-09 18:12N 45°05' E 013°38'0 0.0
2018-Aug-09 17:51N 45°05' E 013°38'0 0.0
2018-Aug-09 17:30N 45°05' E 013°38'0 0.0
2018-Aug-09 17:00N 45°05' E 013°38'0 0.0
2018-Aug-09 16:24N 45°05' E 013°38'0 0.0
2018-Aug-09 15:51N 45°05' E 013°38'0 0.0
2018-Aug-09 15:21N 45°05' E 013°38'0 0.0
2018-Aug-09 14:57N 45°05' E 013°38'0 0.0
2018-Aug-09 14:30N 45°05' E 013°38'0 0.0
2018-Aug-09 13:54N 45°05' E 013°38'0 0.0
2018-Aug-09 13:27N 45°05' E 013°38'0 0.0
2018-Aug-09 13:00N 45°05' E 013°38'0 0.0
2018-Aug-09 12:30N 45°05' E 013°38'0 0.0
2018-Aug-09 11:57N 45°05' E 013°38'0 0.0
2018-Aug-09 11:30N 45°05' E 013°38'0 0.0
2018-Aug-09 10:57N 45°05' E 013°38'0 0.0
2018-Aug-09 10:30N 45°05' E 013°38'0 0.0
2018-Aug-09 10:00N 45°05' E 013°38'0 0.0
2018-Aug-09 09:27N 45°05' E 013°38'0 0.0
2018-Aug-09 09:00N 45°05' E 013°38'0 0.0
2018-Aug-09 08:24N 45°05' E 013°38'0 0.0
2018-Aug-09 07:55N 45°05' E 013°38'4 6.2
2018-Aug-09 07:18N 45°02' E 013°35'2713.8
2018-Aug-09 05:21N 44°39' E 013°54'514.3
2018-Aug-09 05:00N 44°36' E 013°60'814.2
2018-Aug-09 04:28N 44°31' E 014°07'  

Dump ship's entire track history